Skardu Weather



Skardu's Current Weather

Temprature -2.44o light snow

light snow

Rain: 0 %

Min Temprature-2.44o
Max Temprature-2.44o
Humidity83
Wind Speed1.64 m/h
Sun Rise07:02:33
Sun Set17:15:41
Current Time: 23-Jan-2021 18:23:08
Lat/Lon: 35.2885, 75.6333




Skardu's Geo Location



Skardu's Weather Forecast

Time Overall Temp Min Temp Max Temp Humidity Wind Speed Rain
23-Jan-2021 (Sat)
20:00:00 light snow -2.960 -4.990 -2.960 81 1.34 m/h 0 %
23:00:00 broken clouds -7.150 -8.840 -7.150 76 0.87 m/h 0 %
24-Jan-2021 (Sun)
02:00:00 scattered clouds -10.360 -11.000 -10.360 71 0.69 m/h 0 %
05:00:00 scattered clouds -12.440 -12.530 -12.440 69 0.49 m/h 0 %
08:00:00 scattered clouds -11.660 -11.660 -11.660 68 0.46 m/h 0 %
11:00:00 few clouds -7.500 -7.500 -7.500 72 0.74 m/h 0 %
14:00:00 few clouds -5.800 -5.800 -5.800 77 0.92 m/h 0 %
17:00:00 few clouds -10.840 -10.840 -10.840 76 0.18 m/h 0 %
20:00:00 clear sky -12.270 -12.270 -12.270 72 0.42 m/h 0 %
23:00:00 clear sky -13.500 -13.500 -13.500 70 0.5 m/h 0 %
25-Jan-2021 (Mon)
02:00:00 few clouds -14.740 -14.740 -14.740 69 0.6 m/h 0 %
05:00:00 scattered clouds -15.640 -15.640 -15.640 68 0.7 m/h 0 %
08:00:00 broken clouds -14.570 -14.570 -14.570 68 0.71 m/h 0 %
11:00:00 broken clouds -9.950 -9.950 -9.950 71 0.99 m/h 0 %
14:00:00 broken clouds -8.000 -8.000 -8.000 75 0.94 m/h 0 %
17:00:00 overcast clouds -12.350 -12.350 -12.350 75 0.37 m/h 0 %
20:00:00 overcast clouds -14.060 -14.060 -14.060 71 0.44 m/h 0 %
23:00:00 broken clouds -14.820 -14.820 -14.820 69 0.55 m/h 0 %
26-Jan-2021 (Tue)
02:00:00 scattered clouds -15.950 -15.950 -15.950 67 0.6 m/h 0 %
05:00:00 scattered clouds -16.190 -16.190 -16.190 67 0.67 m/h 0 %
08:00:00 overcast clouds -14.740 -14.740 -14.740 67 0.65 m/h 0 %
11:00:00 overcast clouds -10.270 -10.270 -10.270 71 0.94 m/h 0 %
14:00:00 scattered clouds -8.280 -8.280 -8.280 75 0.99 m/h 0 %
17:00:00 scattered clouds -12.970 -12.970 -12.970 74 0.48 m/h 0 %
20:00:00 clear sky -14.520 -14.520 -14.520 67 0.62 m/h 0 %
23:00:00 clear sky -15.750 -15.750 -15.750 61 0.6 m/h 0 %
27-Jan-2021 (Wed)
02:00:00 clear sky -16.980 -16.980 -16.980 58 0.65 m/h 0 %
05:00:00 clear sky -17.900 -17.900 -17.900 57 0.72 m/h 0 %
08:00:00 clear sky -16.450 -16.450 -16.450 58 0.71 m/h 0 %
11:00:00 clear sky -11.650 -11.650 -11.650 64 0.95 m/h 0 %
14:00:00 scattered clouds -9.580 -9.580 -9.580 71 0.97 m/h 0 %
17:00:00 broken clouds -13.890 -13.890 -13.890 72 0.34 m/h 0 %
20:00:00 overcast clouds -15.720 -15.720 -15.720 67 0.4 m/h 0 %
23:00:00 broken clouds -16.760 -16.760 -16.760 62 0.37 m/h 0 %
28-Jan-2021 (Thu)
02:00:00 broken clouds -17.450 -17.450 -17.450 60 0.57 m/h 0 %
05:00:00 scattered clouds -18.500 -18.500 -18.500 59 0.66 m/h 0 %
08:00:00 clear sky -16.890 -16.890 -16.890 58 0.55 m/h 0 %
11:00:00 clear sky -11.970 -11.970 -11.970 65 0.98 m/h 0 %
14:00:00 clear sky -9.820 -9.820 -9.820 72 0.95 m/h 0 %
17:00:00 clear sky -14.620 -14.620 -14.620 72 0.24 m/h 0 %

Famous Cities (60)